Terminal Aerodrome Forecast
Issued by NWS Cleveland, OH

Home | Current Version | Previous Version | Text Only | Print | Product List | Glossary Off
Versions: 1 2 3 4 5 6 7 8 9 10 11 12 13 14 15 16 17 18 19 20 21

000
FTUS41 KCLE 271100
TAFMFD
TAF
KMFD 271137Z 2712/2812 18010KT P6SM SCT025 OVC040
     FM271500 19012KT P6SM VCSH BKN035 OVC060
      TEMPO 2715/2717 5SM -SHRA BR
     FM271800 20012KT P6SM SCT035 BKN060
     FM272300 23012KT 4SM -RA BR SCT007 OVC015
     FM280300 23012KT 4SM -RA BR BKN007 OVC015
     FM280800 30010KT P6SM SCT007 OVC012=

USA.gov is the U.S. government's official web portal to all federal, state and local government web resources and services.